Latest Weather Observations for Camooweal

IDQ60801

Issued at 10:02 am EST Thursday 23 February 2017 (issued every 30 minutes, with the page automatically refreshed every 10 minutes)

About weather observations | Map of weather stations | Latest weather observations for QLD | Other Formats
Station Details ID: 037010 Name: CAMOOWEAL TOWNSHIP Lat: -19.92 Lon: 138.12 Height: 231.2 m
Data from the previous 72 hours. | See also: Recent months at Camooweal
Date/Time
EST
Temp
°C
App
Temp
°C
Dew
Point
°C
Rel
Hum
%
Delta-T
°C
Wind Press
QNH
hPa
Press
MSL
hPa
Rain since
9am
mm
Dir  Spd
km/h
Gust
km/h
Spd
kts
Gust
kts
23/10:00am 28.8 29.4 22.8 70 4.1 E 24 24 13 13 1014.2 1012.5 -
23/09:30am 27.6 28.4 22.5 74 3.5 ENE 22 35 12 19 1014.2 1012.5 0.0
23/09:00am 26.7 27.6 21.9 75 3.2 ENE 20 30 11 16 1014.1 1012.4 0.6
23/08:30am 26.3 27.2 21.9 77 3.0 E 20 32 11 17 1013.9 1012.2 0.6
23/08:00am 25.7 26.5 21.8 79 2.6 E 20 33 11 18 1013.4 1011.7 0.6
23/07:30am 25.0 26.3 21.7 82 2.2 ESE 17 22 9 12 1012.9 1011.2 0.6
23/07:00am 24.6 27.1 21.7 84 1.9 ESE 11 17 6 9 1012.8 1011.1 0.6
23/06:30am 24.5 27.0 21.8 85 1.8 ESE 11 17 6 9 1012.6 1010.9 0.6
23/06:00am 24.5 27.0 21.8 85 1.8 ESE 11 15 6 8 1012.3 1010.6 0.6
23/05:30am 24.7 26.5 21.8 84 1.9 ESE 15 22 8 12 1011.9 1010.1 0.6
23/05:00am 24.9 26.8 22.0 84 2.0 E 15 22 8 12 1011.5 1009.7 0.6
23/04:30am 24.7 26.7 22.2 86 1.7 ESE 15 24 8 13 1011.1 1009.3 0.6
23/04:00am 24.5 26.7 22.6 89 1.3 ESE 15 20 8 11 1010.8 1009.0 0.6
23/03:30am 24.3 26.4 22.4 89 1.3 ESE 15 19 8 10 1010.7 1008.9 0.6
23/03:00am 24.5 27.4 22.4 88 1.4 ESE 11 15 6 8 1010.9 1009.1 0.6
23/02:30am 24.6 27.8 22.3 87 1.6 ESE 9 13 5 7 1011.3 1009.5 0.6
23/02:00am 25.1 27.6 22.4 85 1.8 E 13 17 7 9 1011.6 1009.8 0.6
23/01:30am 25.2 27.7 22.5 85 1.8 E 13 17 7 9 1011.7 1009.9 0.6
23/01:00am 25.2 27.7 22.5 85 1.8 ENE 13 17 7 9 1012.1 1010.3 0.6
23/12:30am 25.2 27.9 22.1 83 2.1 ENE 11 17 6 9 1012.4 1010.7 0.6
23/12:00am 24.8 27.9 22.1 85 1.8 ESE 9 11 5 6 1012.7 1011.0 0.6
 
Date/Time
EST
Temp
°C
App
Temp
°C
Dew
Point
°C
Rel
Hum
%
Delta-T
°C
Wind Press
QNH
hPa
Press
MSL
hPa
Rain since
9am
mm
Dir  Spd
km/h
Gust
km/h
Spd
kts
Gust
kts
22/11:30pm 25.1 27.7 22.0 83 2.1 E 11 17 6 9 1012.7 1011.0 0.6
22/11:00pm 25.4 27.7 22.1 82 2.2 E 13 20 7 11 1012.8 1011.1 0.6
22/10:30pm 25.5 27.8 22.0 81 2.4 ENE 13 20 7 11 1012.8 1011.1 0.6
22/10:00pm 25.4 27.6 21.9 81 2.4 E 13 20 7 11 1012.7 1011.0 0.6
22/09:30pm 25.5 27.5 21.6 79 2.6 ENE 13 19 7 10 1012.3 1010.6 0.6
22/09:00pm 25.8 28.3 21.7 78 2.8 ENE 11 20 6 11 1012.2 1010.5 0.6
22/08:30pm 26.0 28.9 21.7 77 2.9 ENE 9 13 5 7 1011.6 1009.8 0.6
22/08:00pm 25.9 28.6 21.3 76 3.1 E 9 11 5 6 1011.4 1009.6 0.6
22/07:30pm 26.2 28.5 21.4 75 3.2 ENE 11 15 6 8 1011.1 1009.3 0.6
22/07:00pm 26.7 28.7 21.5 73 3.5 ENE 13 17 7 9 1010.7 1008.9 0.6
22/06:30pm 27.2 28.8 21.5 71 3.8 ENE 15 20 8 11 1010.5 1008.8 0.6
22/06:00pm 27.5 29.1 21.5 70 4.0 ENE 15 20 8 11 1010.7 1008.9 0.6
22/05:30pm 27.7 28.8 22.4 73 3.6 NE 20 32 11 17 1010.2 1008.5 0.6
22/05:00pm 26.8 27.2 21.8 74 3.4 NE 22 32 12 17 1010.1 1008.4 0.6
22/04:30pm 26.5 27.6 22.3 78 2.8 NE 20 30 11 16 1009.9 1008.2 0.6
22/04:00pm 26.0 28.0 22.9 83 2.1 ENE 17 26 9 14 1010.1 1008.4 0.6
22/03:30pm 26.4 27.2 23.1 82 2.3 NE 24 39 13 21 1010.1 1008.4 0.6
22/03:00pm 28.7 29.8 22.0 67 4.6 E 19 44 10 24 1009.6 1007.9 0.6
22/02:30pm 29.2 31.4 23.2 70 4.1 E 17 28 9 15 1009.7 1008.0 0.6
22/02:08pm 26.8 25.5 20.6 69 4.1 ESE 28 46 15 25 1010.0 1008.3 0.4
22/02:03pm 30.0 30.5 21.1 59 6.0 ESE 20 46 11 25 1009.7 1008.0 0.0
22/02:00pm 32.4 33.4 20.3 48 8.1 E 15 24 8 13 1009.7 1008.0 0.0
22/01:30pm 31.7 32.7 20.3 50 7.6 E 15 24 8 13 1010.3 1008.6 0.0
22/01:00pm 31.4 32.2 21.8 56 6.6 E 20 32 11 17 1011.0 1009.2 0.0
22/12:30pm 29.9 30.7 21.3 60 5.8 SE 19 28 10 15 1011.4 1009.6 0.0
22/12:00pm 29.4 30.6 21.4 62 5.4 SE 17 26 9 14 1011.9 1010.1 0.0
22/11:30am 28.7 30.0 21.7 66 4.7 SE 17 24 9 13 1012.3 1010.6 0.0
22/11:00am 28.7 30.2 21.2 64 5.0 E 15 24 8 13 1012.6 1010.9 0.0
22/10:30am 28.5 29.3 21.3 65 4.8 E 19 30 10 16 1012.6 1010.9 0.0
22/10:00am 29.3 29.9 21.0 61 5.6 E 19 28 10 15 1012.6 1010.9 0.0
22/09:30am 28.0 28.8 21.3 67 4.5 ESE 19 28 10 15 1012.5 1010.8 0.0
22/09:00am 27.2 28.1 20.8 68 4.3 E 17 22 9 12 1012.4 1010.7 0.0
22/08:30am 26.5 28.0 21.3 73 3.5 ESE 15 20 8 11 1012.1 1010.3 0.0
22/08:00am 25.7 27.6 21.4 77 2.9 E 13 19 7 10 1011.8 1010.0 0.0
22/07:30am 24.3 27.4 21.4 84 1.9 ESE 7 9 4 5 1011.7 1009.9 0.0
22/07:00am 23.5 26.0 21.0 86 1.7 ESE 9 11 5 6 1011.5 1009.7 0.0
22/06:30am 23.9 26.0 21.0 84 1.9 E 11 17 6 9 1011.1 1009.3 0.0
22/06:00am 24.4 25.8 21.1 82 2.2 ENE 15 24 8 13 1010.8 1009.0 0.0
22/05:30am 24.5 26.0 21.2 82 2.2 E 15 24 8 13 1010.5 1008.8 0.0
22/05:00am 24.6 26.7 21.7 84 1.9 ENE 13 19 7 10 1010.2 1008.5 0.0
22/04:30am 23.7 26.8 21.0 85 1.8 E 6 7 3 4 1010.1 1008.4 0.0
22/04:00am 24.1 26.8 21.4 85 1.8 E 9 11 5 6 1010.0 1008.3 0.0
22/03:30am 24.2 27.1 21.1 83 2.1 ENE 7 11 4 6 1009.8 1008.1 0.0
22/03:00am 24.5 27.1 21.2 82 2.2 ENE 9 15 5 8 1009.8 1008.1 0.0
22/02:30am 24.6 27.3 21.3 82 2.2 ENE 9 13 5 7 1010.1 1008.4 0.0
22/02:00am 24.7 26.9 21.2 81 2.3 E 11 17 6 9 1010.5 1008.8 0.0
22/01:30am 25.1 26.7 21.4 80 2.5 ENE 15 20 8 11 1010.9 1009.1 0.0
22/01:00am 25.5 26.6 21.2 77 2.9 ENE 17 24 9 13 1011.0 1009.2 0.0
22/12:30am 25.8 27.1 20.8 74 3.3 ENE 15 26 8 14 1011.4 1009.6 0.0
22/12:00am 26.1 26.6 20.9 73 3.5 ENE 19 28 10 15 1011.5 1009.7 0.0
 
Date/Time
EST
Temp
°C
App
Temp
°C
Dew
Point
°C
Rel
Hum
%
Delta-T
°C
Wind Press
QNH
hPa
Press
MSL
hPa
Rain since
9am
mm
Dir  Spd
km/h
Gust
km/h
Spd
kts
Gust
kts
21/11:30pm 26.4 26.3 20.7 71 3.8 ENE 22 33 12 18 1011.6 1009.8 0.0
21/11:00pm 26.5 26.0 20.8 71 3.8 ENE 24 37 13 20 1011.8 1010.0 0.0
21/10:30pm 26.8 27.2 20.9 70 3.9 ENE 20 26 11 14 1011.9 1010.1 0.0
21/10:00pm 27.3 27.3 20.9 68 4.3 ENE 22 33 12 18 1011.5 1009.7 0.0
21/09:30pm 27.5 27.3 20.6 66 4.6 ENE 22 32 12 17 1011.2 1009.4 0.0
21/09:00pm 27.8 28.7 20.9 66 4.6 ENE 17 26 9 14 1011.1 1009.3 0.0
21/08:30pm 28.0 28.9 20.8 65 4.8 E 17 26 9 14 1011.0 1009.2 0.0
21/08:00pm 28.5 29.0 20.8 63 5.1 E 19 30 10 16 1010.7 1008.9 0.0
21/07:30pm 29.0 30.0 21.0 62 5.4 E 17 24 9 13 1010.4 1008.7 0.0
21/07:00pm 29.4 31.0 20.8 60 5.8 E 13 22 7 12 1010.1 1008.4 0.0
21/06:30pm 29.5 31.0 21.2 61 5.6 E 15 22 8 12 1009.7 1008.0 0.0
21/06:00pm 30.0 28.9 20.3 56 6.5 NE 26 35 14 19 1009.5 1007.8 0.0
21/05:30pm 32.2 31.8 20.1 48 8.1 ENE 22 32 12 17 1009.1 1007.4 0.0
21/05:00pm 32.2 32.0 19.8 48 8.3 ENE 20 30 11 16 1009.0 1007.3 0.0
21/04:30pm 32.9 32.3 19.7 45 8.8 ENE 22 32 12 17 1008.9 1007.2 0.0
21/04:00pm 33.1 33.0 19.6 45 9.0 ENE 19 32 10 17 1008.9 1007.2 0.0
21/03:30pm 33.1 33.0 19.9 45 8.8 ENE 20 30 11 16 1009.0 1007.3 0.0
21/03:00pm 33.7 33.5 19.7 43 9.4 ENE 20 33 11 18 1009.2 1007.5 0.0
21/02:30pm 32.2 31.6 19.8 48 8.3 E 22 33 12 18 1009.6 1007.9 0.0
21/02:00pm 32.3 32.0 19.2 46 8.7 E 19 30 10 16 1010.1 1008.4 0.0
21/01:30pm 33.2 32.8 19.3 44 9.2 ENE 20 30 11 16 1010.4 1008.7 0.0
21/01:00pm 32.5 31.5 17.9 41 9.5 ESE 20 32 11 17 1010.8 1009.0 0.0
21/12:30pm 33.5 33.2 19.6 44 9.3 E 20 30 11 16 1011.3 1009.5 0.0
21/12:00pm 31.7 29.9 17.9 43 8.9 E 24 37 13 20 1011.8 1010.0 0.0
21/11:30am 31.4 29.5 17.7 44 8.8 E 24 33 13 18 1012.1 1010.3 0.0
21/11:00am 30.3 28.0 16.7 44 8.6 SE 24 35 13 19 1012.2 1010.5 0.0
21/10:30am 29.6 27.4 16.8 46 8.1 ESE 24 37 13 20 1012.7 1011.0 0.0
21/10:00am 29.0 28.1 18.1 51 7.0 ESE 20 32 11 17 1012.8 1011.1 0.0
21/09:30am 28.7 28.3 18.8 55 6.4 ESE 19 28 10 15 1012.8 1011.1 0.0
21/09:00am 27.0 26.5 17.8 57 5.9 ESE 17 32 9 17 1012.6 1010.9 0.0
21/08:30am 25.4 25.9 18.3 65 4.5 SE 13 15 7 8 1012.4 1010.7 0.0
21/08:00am 24.0 25.3 18.4 71 3.6 SE 9 13 5 7 1012.2 1010.5 0.0
21/07:30am 22.9 24.2 17.6 72 3.3 SE 7 11 4 6 1011.8 1010.0 0.0
21/07:00am 22.1 22.8 17.0 73 3.2 SE 9 11 5 6 1011.4 1009.6 0.0
21/06:30am 22.1 23.2 17.0 73 3.2 SSE 7 9 4 5 1011.4 1009.6 0.0
21/06:00am 21.6 22.5 16.6 73 3.1 ESE 7 9 4 5 1011.3 1009.5 0.0
21/05:30am 21.6 22.5 16.1 71 3.3 SE 6 7 3 4 1010.9 1009.1 0.0
21/05:00am 21.1 23.2 16.3 74 2.9 CALM 0 0 0 0 1010.7 1008.9 0.0
21/04:30am 20.9 21.3 16.3 75 2.8 SSE 9 9 5 5 1010.4 1008.7 0.0
21/04:00am 21.2 21.9 16.2 73 3.0 SE 7 9 4 5 1010.1 1008.4 0.0
21/03:30am 21.4 22.0 15.9 71 3.3 SE 7 11 4 6 1010.2 1008.5 0.0
21/03:00am 21.5 22.1 15.8 70 3.5 SE 7 9 4 5 1010.2 1008.5 0.0
21/02:30am 21.7 21.7 15.1 66 4.0 SE 9 13 5 7 1010.8 1009.0 0.0
21/02:00am 22.3 22.2 14.9 63 4.4 ESE 9 11 5 6 1011.1 1009.3 0.0
21/01:30am 22.7 21.7 14.5 60 4.9 E 13 15 7 8 1011.5 1009.7 0.0
21/01:00am 22.5 23.1 15.4 64 4.3 SSE 6 9 3 5 1011.4 1009.6 0.0
21/12:30am 23.6 24.7 14.6 57 5.4 NW 2 7 1 4 1011.6 1009.8 0.0
21/12:00am 24.2 24.3 14.0 53 6.1 ENE 6 7 3 4 1011.7 1009.9 0.0
 
Date/Time
EST
Temp
°C
App
Temp
°C
Dew
Point
°C
Rel
Hum
%
Delta-T
°C
Wind Press
QNH
hPa
Press
MSL
hPa
Rain since
9am
mm
Dir  Spd
km/h
Gust
km/h
Spd
kts
Gust
kts
20/11:30pm 23.9 23.1 14.0 54 5.9 ESE 11 13 6 7 1011.8 1010.0 0.0
20/11:00pm 24.7 25.0 15.1 55 5.8 ENE 7 9 4 5 1011.9 1010.1 0.0
20/10:30pm 25.0 25.6 14.2 51 6.5 NNE 4 7 2 4 1011.8 1010.0 0.0
20/10:00pm 24.0 23.8 13.5 52 6.2 SE 7 7 4 4 1011.0 1009.2 0.0
20/09:30pm 24.8 24.3 12.7 47 7.1 SSE 7 9 4 5 1010.8 1009.0 0.0
20/09:00pm 24.9 24.3 11.8 44 7.5 ESE 6 7 3 4 1010.4 1008.7 0.0
20/08:30pm 26.2 24.3 10.4 37 8.9 E 11 13 6 7 1009.8 1008.1 0.0
20/08:00pm 27.6 25.4 9.4 32 10.2 E 11 19 6 10 1009.6 1007.9 0.0
20/07:30pm 28.3 26.5 9.6 31 10.5 E 9 13 5 7 1009.4 1007.7 0.0
20/07:00pm 29.1 26.6 9.8 30 11.0 E 13 17 7 9 1009.1 1007.4 0.0
20/06:30pm 30.4 27.3 8.7 26 12.2 ENE 15 22 8 12 1009.2 1007.5 0.0
20/06:00pm 31.2 28.2 9.4 26 12.4 E 15 20 8 11 1008.9 1007.2 0.0
20/05:30pm 31.5 27.6 7.2 22 13.4 ENE 17 26 9 14 1008.6 1006.9 0.0
20/05:00pm 32.1 28.0 7.7 22 13.6 E 19 24 10 13 1008.8 1007.1 0.0
20/04:30pm 32.7 28.5 7.5 21 14.0 ENE 19 28 10 15 1008.7 1007.0 0.0
20/04:00pm 31.9 28.1 7.5 22 13.5 E 17 24 9 13 1008.7 1007.0 0.0
20/03:30pm 32.3 28.2 7.9 22 13.6 E 19 26 10 14 1008.9 1007.2 0.0
20/03:00pm 31.9 27.4 6.2 20 13.9 ESE 19 30 10 16 1009.3 1007.6 0.0
20/02:30pm 32.1 28.1 8.4 23 13.3 ESE 19 26 10 14 1009.6 1007.9 0.0
20/02:00pm 31.7 26.8 5.3 19 14.1 E 20 30 11 16 1009.9 1008.2 0.0
20/01:30pm 31.5 26.4 5.8 20 13.8 ESE 22 32 12 17 1010.2 1008.5 0.0
20/01:00pm 31.3 24.8 4.9 19 14.0 ESE 28 33 15 18 1010.4 1008.7 0.0
20/12:30pm 31.2 26.2 6.3 21 13.5 ESE 22 30 12 16 1010.7 1008.9 0.0
20/12:00pm 30.8 25.5 6.6 22 13.1 SE 24 39 13 21 1011.2 1009.4 0.0
20/11:30am 30.0 23.8 6.0 22 12.8 ESE 28 39 15 21 1011.6 1009.8 0.0
20/11:00am 28.8 23.4 6.2 24 12.0 SE 24 35 13 19 1011.9 1010.1 0.0
20/10:30am 28.5 22.9 7.1 26 11.6 SE 26 35 14 19 1012.2 1010.5 0.0

Other Formats:

Comma delimited format used in spreadsheet applications
http://www.bom.gov.au/fwo/IDQ60801/IDQ60801.94255.axf

JavaScript Object Notation format (JSON) in row-major order
http://www.bom.gov.au/fwo/IDQ60801/IDQ60801.94255.json